createdAt,value
2023-05-13T00:01:38.863Z,101152.53
2023-05-13T00:04:09.029Z,101148.44
2023-05-13T00:06:36.059Z,101150.56
2023-05-13T00:09:03.265Z,101148.00
2023-05-13T00:11:29.878Z,101138.19
2023-05-13T00:13:57.350Z,101141.66
2023-05-13T00:16:27.374Z,101141.72
2023-05-13T00:18:55.378Z,101132.28
2023-05-13T00:21:22.389Z,101135.88
2023-05-13T00:23:49.390Z,101140.47
2023-05-13T00:26:16.469Z,101142.13
2023-05-13T00:28:45.394Z,101143.38
2023-05-13T00:31:12.015Z,101146.34
2023-05-13T00:33:39.340Z,101152.00
2023-05-13T00:36:07.665Z,101150.53
2023-05-13T00:38:34.538Z,101147.16
2023-05-13T00:41:03.619Z,101140.06
2023-05-13T00:43:30.670Z,101141.25
2023-05-13T00:45:58.617Z,101139.47
2023-05-13T00:48:25.271Z,101149.44
2023-05-13T00:50:52.461Z,101153.03
2023-05-13T00:53:19.006Z,101142.94
2023-05-13T00:55:46.217Z,101140.47
2023-05-13T00:58:13.543Z,101145.88
2023-05-13T01:00:51.920Z,101138.59
2023-05-13T01:03:27.559Z,101133.28
2023-05-13T01:06:13.660Z,101140.66
2023-05-13T01:09:06.674Z,101133.31
2023-05-13T01:11:40.108Z,101127.63
2023-05-13T01:14:11.691Z,101136.63
2023-05-13T01:16:59.224Z,101134.50
2023-05-13T01:19:47.543Z,101136.38
2023-05-13T01:22:14.213Z,101138.34
2023-05-13T01:24:41.361Z,101137.91
2023-05-13T01:27:08.117Z,101142.19
2023-05-13T01:29:36.424Z,101148.44
2023-05-13T01:32:04.414Z,101143.22
2023-05-13T01:34:32.094Z,101140.47
2023-05-13T01:36:59.996Z,101153.19
2023-05-13T01:44:25.372Z,101157.63
2023-05-13T01:46:53.494Z,101145.91
2023-05-13T01:49:20.555Z,101153.88
2023-05-13T01:51:47.169Z,101156.91
2023-05-13T01:54:13.888Z,101150.22
2023-05-13T01:56:46.850Z,101145.38
2023-05-13T01:59:13.422Z,101159.00
2023-05-13T02:01:40.609Z,101142.38
2023-05-13T02:04:07.289Z,101153.78
2023-05-13T02:06:34.111Z,101149.56
2023-05-13T02:09:00.700Z,101143.59
2023-05-13T02:11:27.575Z,101142.53
2023-05-13T02:13:56.920Z,101141.03
2023-05-13T02:16:23.528Z,101144.53
2023-05-13T02:18:50.315Z,101139.75
2023-05-13T02:21:16.997Z,101141.84
2023-05-13T02:23:43.962Z,101141.41
2023-05-13T02:26:10.518Z,101140.34
2023-05-13T02:28:37.310Z,101139.84
2023-05-13T02:31:03.888Z,101141.91
2023-05-13T02:33:30.795Z,101146.66
2023-05-13T02:35:57.559Z,101147.38
2023-05-13T02:38:24.107Z,101148.09
2023-05-13T02:40:50.735Z,101138.16
2023-05-13T02:43:17.688Z,101129.13
2023-05-13T02:45:56.382Z,101128.94
2023-05-13T02:48:23.172Z,101127.72
2023-05-13T02:50:50.801Z,101130.88
2023-05-13T02:53:17.391Z,101138.56
2023-05-13T02:55:50.289Z,101135.84
2023-05-13T02:58:17.347Z,101137.63
2023-05-13T03:00:44.747Z,101138.44
2023-05-13T03:03:11.505Z,101131.16
2023-05-13T03:05:38.483Z,101136.88
2023-05-13T03:08:05.080Z,101141.53
2023-05-13T03:10:31.987Z,101142.38
2023-05-13T03:12:58.553Z,101144.00
2023-05-13T03:15:25.433Z,101143.50
2023-05-13T03:17:52.118Z,101138.56
2023-05-13T03:20:20.751Z,101141.53
2023-05-13T03:22:47.572Z,101149.97
2023-05-13T03:25:15.513Z,101147.97
2023-05-13T03:27:49.970Z,101149.41
2023-05-13T03:30:18.970Z,101153.59
2023-05-13T03:32:52.866Z,101156.22
2023-05-13T03:35:19.569Z,101156.06
2023-05-13T03:37:47.177Z,101166.91
2023-05-13T03:40:14.728Z,101157.34
2023-05-13T03:42:41.809Z,101154.63
2023-05-13T03:45:09.168Z,101153.81
2023-05-13T03:47:39.100Z,101156.53
2023-05-13T03:50:09.752Z,101160.88
2023-05-13T03:52:41.408Z,101164.34
2023-05-13T03:55:09.101Z,101167.16
2023-05-13T03:57:35.671Z,101175.69
2023-05-13T04:00:03.612Z,101164.50
2023-05-13T04:02:41.427Z,101165.28
2023-05-13T04:05:09.498Z,101173.63
2023-05-13T04:07:36.202Z,101176.03
2023-05-13T04:10:02.878Z,101178.41
2023-05-13T04:12:30.932Z,101178.84
2023-05-13T04:14:57.573Z,101172.72
2023-05-13T04:17:24.550Z,101177.63
2023-05-13T04:19:55.041Z,101182.47
2023-05-13T04:22:22.092Z,101184.84
2023-05-13T04:24:51.958Z,101184.66
2023-05-13T04:27:18.725Z,101184.56
2023-05-13T04:29:46.777Z,101187.53
2023-05-13T04:32:21.297Z,101188.47
2023-05-13T04:34:52.670Z,101178.41
2023-05-13T04:37:19.927Z,101182.31
2023-05-13T04:39:48.415Z,101180.72
2023-05-13T04:42:16.672Z,101177.69
2023-05-13T04:44:43.735Z,101191.47
2023-05-13T04:47:10.569Z,101189.47
2023-05-13T04:49:37.129Z,101178.75
2023-05-13T04:52:04.828Z,101179.88
2023-05-13T04:54:35.298Z,101187.63
2023-05-13T04:57:02.771Z,101180.69
2023-05-13T04:59:31.007Z,101189.66
2023-05-13T05:01:58.011Z,101196.47
2023-05-13T05:04:25.398Z,101189.84
2023-05-13T05:06:52.199Z,101189.59
2023-05-13T05:09:18.935Z,101198.06
2023-05-13T05:11:47.182Z,101194.06
2023-05-13T05:14:13.716Z,101200.16
2023-05-13T05:16:40.391Z,101200.31
2023-05-13T05:19:08.194Z,101199.91
2023-05-13T05:21:37.267Z,101205.72
2023-05-13T05:24:05.807Z,101216.88
2023-05-13T05:26:32.433Z,101225.53
2023-05-13T05:28:58.988Z,101226.94
2023-05-13T05:31:27.499Z,101232.03
2023-05-13T05:33:56.392Z,101234.16
2023-05-13T05:36:23.132Z,101253.28
2023-05-13T05:38:50.383Z,101256.06
2023-05-13T05:41:17.287Z,101264.66
2023-05-13T05:43:46.634Z,101270.25
2023-05-13T05:46:13.373Z,101271.88
2023-05-13T05:48:40.292Z,101277.91
2023-05-13T05:51:07.520Z,101274.47
2023-05-13T05:53:37.680Z,101282.69
2023-05-13T05:56:05.600Z,101270.28
2023-05-13T05:58:33.641Z,101264.59
2023-05-13T06:01:01.280Z,101267.94
2023-05-13T06:03:28.187Z,101265.41
2023-05-13T06:05:54.849Z,101266.16
2023-05-13T06:08:22.486Z,101268.72
2023-05-13T06:10:51.129Z,101259.50
2023-05-13T06:13:17.720Z,101258.59
2023-05-13T06:15:44.269Z,101265.47
2023-05-13T06:18:11.602Z,101262.91
2023-05-13T06:20:38.186Z,101269.13
2023-05-13T06:23:04.776Z,101264.72
2023-05-13T06:25:31.331Z,101257.66
2023-05-13T06:27:57.941Z,101253.63
2023-05-13T06:30:25.016Z,101248.81
2023-05-13T06:33:00.759Z,101265.47
2023-05-13T06:35:28.020Z,101254.84
2023-05-13T06:37:54.679Z,101256.69
2023-05-13T06:40:21.517Z,101258.06
2023-05-13T06:42:48.552Z,101259.31
2023-05-13T06:45:23.325Z,101255.09
2023-05-13T06:47:51.568Z,101262.28
2023-05-13T06:50:18.820Z,101269.69
2023-05-13T06:52:49.439Z,101269.69
2023-05-13T06:55:18.734Z,101272.47
2023-05-13T06:57:46.792Z,101271.97
2023-05-13T07:00:15.069Z,101268.34
2023-05-13T07:02:42.062Z,101283.69
2023-05-13T07:05:11.412Z,101279.41
2023-05-13T07:07:47.810Z,101283.53
2023-05-13T07:10:14.980Z,101288.16
2023-05-13T07:12:41.638Z,101274.94
2023-05-13T07:15:08.612Z,101274.28
2023-05-13T07:17:35.375Z,101280.22
2023-05-13T07:20:02.489Z,101273.84
2023-05-13T07:22:29.366Z,101280.91
2023-05-13T07:24:57.079Z,101282.13
2023-05-13T07:27:23.964Z,101282.31
2023-05-13T07:29:50.512Z,101288.41
2023-05-13T07:32:17.805Z,101286.88
2023-05-13T07:34:44.476Z,101289.06
2023-05-13T07:37:11.121Z,101293.25
2023-05-13T07:39:37.719Z,101283.72
2023-05-13T07:42:04.349Z,101277.50
2023-05-13T07:44:30.986Z,101270.22
2023-05-13T07:46:57.585Z,101267.03
2023-05-13T07:49:24.140Z,101264.06
2023-05-13T07:51:50.746Z,101262.59
2023-05-13T07:54:18.246Z,101257.34
2023-05-13T07:56:46.512Z,101262.28
2023-05-13T07:59:13.125Z,101265.25
2023-05-13T08:01:39.653Z,101254.41
2023-05-13T08:04:06.431Z,101247.78
2023-05-13T08:06:33.258Z,101253.03
2023-05-13T08:09:00.201Z,101259.78
2023-05-13T08:11:26.866Z,101256.91
2023-05-13T08:13:53.436Z,101256.06
2023-05-13T08:16:20.194Z,101250.09
2023-05-13T08:18:46.816Z,101245.50
2023-05-13T08:21:13.375Z,101250.94
2023-05-13T08:23:45.339Z,101242.31
2023-05-13T08:26:13.746Z,101232.75
2023-05-13T08:28:41.927Z,101225.72
2023-05-13T08:31:11.650Z,101231.28
2023-05-13T08:33:38.359Z,101233.44
2023-05-13T08:36:05.623Z,101233.78
2023-05-13T08:38:33.466Z,101235.09
2023-05-13T08:41:04.538Z,101235.25
2023-05-13T08:43:32.796Z,101240.81
2023-05-13T08:46:02.800Z,101244.13
2023-05-13T08:48:30.961Z,101220.88
2023-05-13T08:50:58.310Z,101225.72
2023-05-13T08:53:25.468Z,101225.38
2023-05-13T08:55:52.213Z,101230.84
2023-05-13T08:58:20.033Z,101234.34
2023-05-13T09:00:48.665Z,101219.91
2023-05-13T09:03:15.509Z,101233.72
2023-05-13T09:05:43.883Z,101224.84
2023-05-13T09:08:10.643Z,101233.88
2023-05-13T09:10:38.090Z,101229.03
2023-05-13T09:13:05.782Z,101214.47
2023-05-13T09:15:32.918Z,101216.44
2023-05-13T09:18:06.732Z,101205.72
2023-05-13T09:20:34.888Z,101217.69
2023-05-13T09:23:06.459Z,101211.31
2023-05-13T09:25:33.707Z,101219.81
2023-05-13T09:28:05.869Z,101219.13
2023-05-13T09:30:42.622Z,101220.69
2023-05-13T09:33:11.795Z,101203.66
2023-05-13T09:35:41.557Z,101209.63
2023-05-13T09:38:29.262Z,101193.69
2023-05-13T09:41:00.495Z,101202.22
2023-05-13T09:43:31.473Z,101209.81
2023-05-13T09:46:01.406Z,101207.00
2023-05-13T09:48:29.487Z,101211.13
2023-05-13T09:50:58.570Z,101222.66
2023-05-13T09:53:26.343Z,101216.97
2023-05-13T09:55:55.416Z,101224.06
2023-05-13T09:58:23.640Z,101217.06
2023-05-13T10:00:51.371Z,101215.41
2023-05-13T10:03:18.014Z,101214.66
2023-05-13T10:05:45.017Z,101223.38
2023-05-13T10:08:14.757Z,101237.88
2023-05-13T10:10:42.561Z,101224.22
2023-05-13T10:13:12.818Z,101219.78
2023-05-13T10:15:51.017Z,101225.72
2023-05-13T10:18:19.447Z,101227.91
2023-05-13T10:20:47.137Z,101214.00
2023-05-13T10:23:13.813Z,101206.66
2023-05-13T10:25:43.079Z,101210.22
2023-05-13T10:28:10.497Z,101211.03
2023-05-13T10:30:38.016Z,101206.78
2023-05-13T10:33:04.656Z,101208.66
2023-05-13T10:35:40.533Z,101209.03
2023-05-13T10:38:43.469Z,101208.75
2023-05-13T10:42:11.337Z,101210.44
2023-05-13T10:44:37.942Z,101213.47
2023-05-13T10:47:04.603Z,101200.09
2023-05-13T10:49:35.327Z,101202.19
2023-05-13T10:52:06.088Z,101212.09
2023-05-13T10:54:42.035Z,101204.06
2023-05-13T10:57:09.351Z,101203.91
2023-05-13T10:59:37.406Z,101199.56
2023-05-13T11:02:37.197Z,101201.09
2023-05-13T11:05:05.175Z,101198.03
2023-05-13T11:07:31.725Z,101193.84
2023-05-13T11:09:59.942Z,101200.09
2023-05-13T11:12:26.477Z,101203.19
2023-05-13T11:14:56.096Z,101200.53
2023-05-13T11:17:23.157Z,101207.25
2023-05-13T11:19:51.497Z,101198.13
2023-05-13T11:22:18.527Z,101197.34
2023-05-13T11:24:47.329Z,101198.31
2023-05-13T11:27:19.723Z,101197.00
2023-05-13T11:29:55.881Z,101200.59
2023-05-13T11:32:50.641Z,101187.84
2023-05-13T11:35:32.287Z,101197.72
2023-05-13T11:38:01.439Z,101198.47
2023-05-13T11:40:31.115Z,101185.06
2023-05-13T11:42:58.721Z,101179.59
2023-05-13T11:45:26.956Z,101185.06
2023-05-13T11:47:54.595Z,101191.25
2023-05-13T11:50:22.565Z,101187.72
2023-05-13T11:53:09.353Z,101185.28
2023-05-13T11:55:36.459Z,101188.69
2023-05-13T11:58:04.267Z,101195.91
2023-05-13T12:00:32.475Z,101197.63
2023-05-13T12:03:00.887Z,101187.41
2023-05-13T12:05:28.241Z,101183.63
2023-05-13T12:07:58.788Z,101193.88
2023-05-13T12:10:26.284Z,101189.41
2023-05-13T12:12:53.297Z,101194.72
2023-05-13T12:15:22.105Z,101200.34
2023-05-13T12:17:49.511Z,101185.03
2023-05-13T12:20:21.092Z,101197.78
2023-05-13T12:22:48.090Z,101184.22
2023-05-13T12:25:40.284Z,101181.97
2023-05-13T12:28:23.970Z,101185.59
2023-05-13T12:30:56.838Z,101184.34
2023-05-13T12:33:31.204Z,101194.19
2023-05-13T12:36:18.639Z,101189.56
2023-05-13T12:39:05.154Z,101197.88
2023-05-13T12:41:35.093Z,101190.56
2023-05-13T12:44:09.249Z,101200.06
2023-05-13T12:46:36.714Z,101196.97
2023-05-13T12:49:04.477Z,101189.56
2023-05-13T12:51:31.150Z,101182.47
2023-05-13T12:53:58.285Z,101192.44
2023-05-13T12:56:25.707Z,101193.97
2023-05-13T12:58:54.216Z,101204.78
2023-05-13T13:01:21.369Z,101198.84
2023-05-13T13:03:47.997Z,101193.91
2023-05-13T13:06:15.412Z,101196.69
2023-05-13T13:08:42.271Z,101190.75
2023-05-13T13:11:10.147Z,101186.31
2023-05-13T13:13:38.928Z,101171.88
2023-05-13T13:16:06.426Z,101176.91
2023-05-13T13:18:33.107Z,101169.97
2023-05-13T13:20:59.769Z,101174.19
2023-05-13T13:23:26.357Z,101179.22
2023-05-13T13:25:52.964Z,101172.06
2023-05-13T13:28:19.691Z,101185.25
2023-05-13T13:30:47.218Z,101175.66
2023-05-13T13:33:15.547Z,101181.06
2023-05-13T13:35:46.946Z,101174.97
2023-05-13T13:38:14.743Z,101170.47
2023-05-13T13:40:42.835Z,101169.63
2023-05-13T13:43:09.470Z,101168.59
2023-05-13T13:45:36.638Z,101170.34
2023-05-13T13:48:03.714Z,101166.88
2023-05-13T13:50:30.577Z,101168.47
2023-05-13T13:52:57.752Z,101169.09
2023-05-13T13:55:24.655Z,101158.97
2023-05-13T13:57:52.066Z,101161.84
2023-05-13T14:00:19.103Z,101163.69
2023-05-13T14:02:46.463Z,101164.94
2023-05-13T14:05:13.734Z,101166.72
2023-05-13T14:07:40.454Z,101164.19
2023-05-13T14:10:08.390Z,101167.50
2023-05-13T14:12:37.940Z,101159.25
2023-05-13T14:15:06.633Z,101156.03
2023-05-13T14:17:33.907Z,101149.91
2023-05-13T14:20:01.457Z,101157.22
2023-05-13T14:22:28.409Z,101151.31
2023-05-13T14:24:55.311Z,101140.81
2023-05-13T14:27:24.261Z,101135.41
2023-05-13T14:29:51.068Z,101136.88
2023-05-13T14:32:17.803Z,101137.81
2023-05-13T14:34:44.612Z,101142.88
2023-05-13T14:37:11.513Z,101136.69
2023-05-13T14:39:38.143Z,101137.25
2023-05-13T14:42:06.244Z,101128.91
2023-05-13T14:44:33.155Z,101134.03
2023-05-13T14:47:00.018Z,101138.31
2023-05-13T14:49:27.505Z,101139.81
2023-05-13T14:51:54.302Z,101127.84
2023-05-13T14:54:21.975Z,101126.88
2023-05-13T14:56:48.785Z,101142.84
2023-05-13T14:59:16.949Z,101131.34
2023-05-13T15:01:43.702Z,101127.34
2023-05-13T15:04:10.912Z,101134.00
2023-05-13T15:06:38.493Z,101126.66
2023-05-13T15:09:06.059Z,101127.97
2023-05-13T15:11:33.271Z,101125.41
2023-05-13T15:14:00.002Z,101141.69
2023-05-13T15:16:26.747Z,101117.84
2023-05-13T15:18:53.581Z,101126.16
2023-05-13T15:21:20.556Z,101118.06
2023-05-13T15:23:47.232Z,101116.28
2023-05-13T15:26:14.423Z,101119.38
2023-05-13T15:28:41.602Z,101110.47
2023-05-13T15:31:08.324Z,101116.75
2023-05-13T15:33:34.940Z,101114.81
2023-05-13T15:36:01.803Z,101111.44
2023-05-13T15:38:28.313Z,101114.28
2023-05-13T15:40:55.232Z,101122.53
2023-05-13T15:43:21.868Z,101122.59
2023-05-13T15:45:49.988Z,101115.53
2023-05-13T15:48:17.641Z,101115.16
2023-05-13T15:50:44.835Z,101120.50
2023-05-13T15:53:11.481Z,101103.41
2023-05-13T15:55:39.597Z,101111.41
2023-05-13T15:58:06.970Z,101098.47
2023-05-13T16:00:33.835Z,101105.69
2023-05-13T16:03:00.722Z,101099.22
2023-05-13T16:05:27.375Z,101097.78
2023-05-13T16:07:54.414Z,101099.03
2023-05-13T16:10:21.817Z,101098.03
2023-05-13T16:12:48.813Z,101091.66
2023-05-13T16:15:15.376Z,101085.34
2023-05-13T16:17:41.961Z,101084.91
2023-05-13T16:20:11.402Z,101085.69
2023-05-13T16:22:38.983Z,101086.25
2023-05-13T16:25:07.576Z,101084.63
2023-05-13T16:27:35.196Z,101090.59
2023-05-13T16:30:03.244Z,101090.59
2023-05-13T16:32:31.188Z,101087.50
2023-05-13T16:34:58.116Z,101087.69
2023-05-13T16:37:24.848Z,101078.50
2023-05-13T16:39:51.539Z,101095.47
2023-05-13T16:42:19.581Z,101084.22
2023-05-13T16:44:47.158Z,101085.13
2023-05-13T16:47:13.958Z,101080.56
2023-05-13T16:49:40.932Z,101082.25
2023-05-13T16:52:07.662Z,101084.66
2023-05-13T16:54:34.576Z,101083.72
2023-05-13T16:57:01.599Z,101087.47
2023-05-13T16:59:28.639Z,101081.31
2023-05-13T17:01:55.865Z,101089.72
2023-05-13T17:04:22.748Z,101085.22
2023-05-13T17:06:49.518Z,101081.06
2023-05-13T17:09:16.481Z,101072.25
2023-05-13T17:11:43.473Z,101075.97
2023-05-13T17:14:10.688Z,101079.09
2023-05-13T17:16:38.341Z,101086.59
2023-05-13T17:19:05.121Z,101084.53
2023-05-13T17:21:32.667Z,101072.84
2023-05-13T17:23:59.826Z,101082.13
2023-05-13T17:26:27.922Z,101089.84
2023-05-13T17:28:54.830Z,101082.97
2023-05-13T17:31:23.316Z,101087.75
2023-05-13T17:33:50.333Z,101082.09
2023-05-13T17:36:17.106Z,101081.16
2023-05-13T17:38:44.190Z,101087.91
2023-05-13T17:41:11.114Z,101078.97
2023-05-13T17:43:37.770Z,101087.50
2023-05-13T17:46:04.798Z,101076.81
2023-05-13T17:48:33.134Z,101089.41
2023-05-13T17:51:00.121Z,101092.16
2023-05-13T17:53:26.842Z,101082.75
2023-05-13T17:55:53.754Z,101084.88
2023-05-13T17:58:20.842Z,101082.69
2023-05-13T18:00:48.809Z,101080.69
2023-05-13T18:03:16.371Z,101081.38
2023-05-13T18:05:43.382Z,101082.13
2023-05-13T18:08:10.206Z,101087.97
2023-05-13T18:10:37.409Z,101085.81
2023-05-13T18:13:04.286Z,101082.47
2023-05-13T18:15:31.065Z,101081.56
2023-05-13T18:17:58.082Z,101079.78
2023-05-13T18:20:25.106Z,101081.88
2023-05-13T18:22:51.846Z,101091.81
2023-05-13T18:25:18.663Z,101080.75
2023-05-13T18:27:45.406Z,101089.53
2023-05-13T18:30:12.628Z,101087.34
2023-05-13T18:32:39.369Z,101089.22
2023-05-13T18:35:06.466Z,101088.03
2023-05-13T18:37:33.188Z,101094.94
2023-05-13T18:40:01.757Z,101100.16
2023-05-13T18:42:29.601Z,101098.94
2023-05-13T18:44:56.418Z,101100.09
2023-05-13T18:47:23.666Z,101098.56
2023-05-13T18:49:50.394Z,101100.31
2023-05-13T18:52:17.140Z,101102.56
2023-05-13T18:54:43.875Z,101096.72
2023-05-13T18:57:11.034Z,101103.22
2023-05-13T18:59:39.940Z,101107.53
2023-05-13T19:02:07.083Z,101106.47
2023-05-13T19:04:34.097Z,101112.59
2023-05-13T19:07:01.374Z,101113.38
2023-05-13T19:09:28.311Z,101114.94
2023-05-13T19:11:54.969Z,101107.16
2023-05-13T19:14:21.657Z,101108.91
2023-05-13T19:16:48.415Z,101117.88
2023-05-13T19:19:15.193Z,101116.31
2023-05-13T19:21:45.279Z,101122.38
2023-05-13T19:24:12.361Z,101118.25
2023-05-13T19:26:42.402Z,101115.44
2023-05-13T19:29:09.661Z,101117.03
2023-05-13T19:31:38.237Z,101109.81
2023-05-13T19:34:05.027Z,101113.28
2023-05-13T19:36:31.727Z,101120.03
2023-05-13T19:38:58.704Z,101106.19
2023-05-13T19:41:25.949Z,101113.00
2023-05-13T19:43:52.599Z,101114.22
2023-05-13T19:46:19.384Z,101113.56
2023-05-13T19:48:46.463Z,101114.25
2023-05-13T19:51:13.358Z,101114.06
2023-05-13T19:53:42.981Z,101115.56
2023-05-13T19:56:09.695Z,101114.91
2023-05-13T19:58:36.718Z,101108.72
2023-05-13T20:01:04.005Z,101110.22
2023-05-13T20:03:31.229Z,101109.94
2023-05-13T20:05:58.101Z,101107.44
2023-05-13T20:08:25.167Z,101115.88
2023-05-13T20:10:51.820Z,101118.16
2023-05-13T20:13:18.762Z,101116.59
2023-05-13T20:15:45.542Z,101113.06
2023-05-13T20:18:12.488Z,101120.75
2023-05-13T20:20:41.414Z,101108.81
2023-05-13T20:23:08.653Z,101111.13
2023-05-13T20:25:35.759Z,101113.63
2023-05-13T20:28:02.460Z,101108.38
2023-05-13T20:30:29.178Z,101115.34
2023-05-13T20:32:55.928Z,101107.19
2023-05-13T20:35:23.003Z,101103.88
2023-05-13T20:37:49.945Z,101109.44
2023-05-13T20:40:16.657Z,101112.84
2023-05-13T20:42:43.396Z,101116.00
2023-05-13T20:45:10.872Z,101113.50
2023-05-13T20:47:37.586Z,101113.50
2023-05-13T20:50:04.532Z,101116.81
2023-05-13T20:52:31.458Z,101112.63
2023-05-13T20:54:58.861Z,101114.53
2023-05-13T20:57:25.601Z,101108.44
2023-05-13T20:59:52.830Z,101117.63
2023-05-13T21:02:19.474Z,101108.06
2023-05-13T21:04:46.226Z,101113.44
2023-05-13T21:07:12.960Z,101109.22
2023-05-13T21:09:39.815Z,101099.31
2023-05-13T21:12:06.936Z,101106.38
2023-05-13T21:14:33.529Z,101101.38
2023-05-13T21:17:03.096Z,101098.72
2023-05-13T21:19:30.485Z,101100.41
2023-05-13T21:21:57.675Z,101103.63
2023-05-13T21:24:24.366Z,101102.34
2023-05-13T21:26:50.973Z,101097.69
2023-05-13T21:29:19.114Z,101102.75
2023-05-13T21:31:47.066Z,101100.34
2023-05-13T21:34:14.052Z,101099.91
2023-05-13T21:36:40.975Z,101094.41
2023-05-13T21:39:10.155Z,101096.56
2023-05-13T21:41:37.112Z,101101.34
2023-05-13T21:44:03.941Z,101092.78
2023-05-13T21:46:30.581Z,101093.84
2023-05-13T21:48:59.190Z,101101.81
2023-05-13T21:51:28.745Z,101088.44
2023-05-13T21:53:55.740Z,101100.84
2023-05-13T21:56:22.272Z,101094.50
2023-05-13T21:58:49.918Z,101097.69
2023-05-13T22:01:16.656Z,101091.16
2023-05-13T22:03:43.955Z,101094.63
2023-05-13T22:06:10.518Z,101104.94
2023-05-13T22:08:37.089Z,101102.34
2023-05-13T22:11:03.666Z,101093.63
2023-05-13T22:13:30.258Z,101097.56
2023-05-13T22:15:56.871Z,101099.72
2023-05-13T22:18:23.894Z,101106.38
2023-05-13T22:20:51.137Z,101105.56
2023-05-13T22:23:18.144Z,101107.22
2023-05-13T22:25:44.705Z,101111.63
2023-05-13T22:28:11.507Z,101114.72
2023-05-13T22:30:38.353Z,101112.03
2023-05-13T22:33:05.149Z,101117.25
2023-05-13T22:35:36.097Z,101119.53
2023-05-13T22:38:04.139Z,101115.66
2023-05-13T22:40:31.354Z,101120.34
2023-05-13T22:42:57.928Z,101119.22
2023-05-13T22:45:26.595Z,101118.88
2023-05-13T22:47:53.238Z,101120.06
2023-05-13T22:50:20.169Z,101116.78
2023-05-13T22:52:46.719Z,101127.28
2023-05-13T22:55:13.798Z,101119.53
2023-05-13T22:57:40.484Z,101121.88
2023-05-13T23:00:07.682Z,101124.03
2023-05-13T23:02:34.271Z,101123.41
2023-05-13T23:05:01.433Z,101126.25
2023-05-13T23:07:28.426Z,101110.94
2023-05-13T23:09:55.026Z,101111.56
2023-05-13T23:12:22.228Z,101106.34
2023-05-13T23:14:48.802Z,101112.72
2023-05-13T23:17:15.293Z,101099.72
2023-05-13T23:19:42.263Z,101105.19
2023-05-13T23:22:08.900Z,101107.59
2023-05-13T23:24:35.561Z,101112.56
2023-05-13T23:27:02.422Z,101107.22
2023-05-13T23:29:29.053Z,101110.56
2023-05-13T23:31:55.714Z,101115.69
2023-05-13T23:34:22.291Z,101123.53
2023-05-13T23:36:49.175Z,101118.28
2023-05-13T23:39:15.798Z,101125.88
2023-05-13T23:41:42.738Z,101119.84
2023-05-13T23:44:09.450Z,101121.59
2023-05-13T23:46:36.407Z,101117.69
2023-05-13T23:49:03.236Z,101121.75
2023-05-13T23:51:29.820Z,101106.91
2023-05-13T23:53:56.443Z,101110.13
2023-05-13T23:56:23.346Z,101105.19
2023-05-13T23:58:50.073Z,101115.97
